sensor_id;sensor_type;location;lat;lon;timestamp;P1;durP1;ratioP1;P2;durP2;ratioP2
4078;SDS011;2054;47.858;11.156;2024-01-16T03:46:53;5.45;;;2.90;;
4078;SDS011;2054;47.858;11.156;2024-01-16T03:49:21;4.85;;;2.42;;
4078;SDS011;2054;47.858;11.156;2024-01-16T03:51:49;5.82;;;2.72;;
4078;SDS011;2054;47.858;11.156;2024-01-16T03:54:16;6.45;;;2.53;;
4078;SDS011;2054;47.858;11.156;2024-01-16T03:56:43;5.68;;;2.45;;
4078;SDS011;2054;47.858;11.156;2024-01-16T03:59:12;5.43;;;2.97;;
4078;SDS011;2054;47.858;11.156;2024-01-16T04:01:39;7.72;;;3.08;;
4078;SDS011;2054;47.858;11.156;2024-01-16T04:04:09;6.32;;;2.75;;
4078;SDS011;2054;47.858;11.156;2024-01-16T04:06:36;5.10;;;2.70;;
4078;SDS011;2054;47.858;11.156;2024-01-16T04:09:05;5.57;;;2.78;;
4078;SDS011;2054;47.858;11.156;2024-01-16T04:11:33;6.72;;;3.13;;
4078;SDS011;2054;47.858;11.156;2024-01-16T04:14:00;4.97;;;2.35;;
4078;SDS011;2054;47.858;11.156;2024-01-16T04:16:28;6.78;;;2.78;;
4078;SDS011;2054;47.858;11.156;2024-01-16T04:18:55;6.15;;;3.05;;
4078;SDS011;2054;47.858;11.156;2024-01-16T04:21:24;5.05;;;2.67;;
4078;SDS011;2054;47.858;11.156;2024-01-16T04:23:51;5.30;;;2.78;;
4078;SDS011;2054;47.858;11.156;2024-01-16T04:26:18;4.93;;;2.53;;
4078;SDS011;2054;47.858;11.156;2024-01-16T04:28:46;5.00;;;2.80;;
4078;SDS011;2054;47.858;11.156;2024-01-16T04:31:13;7.40;;;2.92;;
4078;SDS011;2054;47.858;11.156;2024-01-16T04:33:42;6.68;;;2.88;;
4078;SDS011;2054;47.858;11.156;2024-01-16T04:36:09;5.43;;;2.83;;
4078;SDS011;2054;47.858;11.156;2024-01-16T04:38:38;5.90;;;2.97;;
4078;SDS011;2054;47.858;11.156;2024-01-16T04:41:06;4.80;;;2.10;;
4078;SDS011;2054;47.858;11.156;2024-01-16T04:43:33;6.45;;;2.83;;
4078;SDS011;2054;47.858;11.156;2024-01-16T04:46:00;5.00;;;2.92;;
4078;SDS011;2054;47.858;11.156;2024-01-16T04:48:28;6.70;;;3.28;;
4078;SDS011;2054;47.858;11.156;2024-01-16T04:50:55;5.93;;;3.13;;
4078;SDS011;2054;47.858;11.156;2024-01-16T04:53:22;6.68;;;2.60;;
4078;SDS011;2054;47.858;11.156;2024-01-16T04:55:51;5.65;;;2.75;;
4078;SDS011;2054;47.858;11.156;2024-01-16T04:58:18;8.43;;;2.78;;
4078;SDS011;2054;47.858;11.156;2024-01-16T05:00:45;5.68;;;2.95;;
4078;SDS011;2054;47.858;11.156;2024-01-16T05:03:13;6.25;;;2.83;;
4078;SDS011;2054;47.858;11.156;2024-01-16T05:05:40;8.80;;;3.03;;
4078;SDS011;2054;47.858;11.156;2024-01-16T05:08:08;3.80;;;2.10;;
4078;SDS011;2054;47.858;11.156;2024-01-16T05:10:35;4.25;;;2.70;;
4078;SDS011;2054;47.858;11.156;2024-01-16T05:13:04;8.05;;;3.08;;
4078;SDS011;2054;47.858;11.156;2024-01-16T05:15:31;5.15;;;2.22;;
4078;SDS011;2054;47.858;11.156;2024-01-16T05:17:58;5.97;;;2.47;;
4078;SDS011;2054;47.858;11.156;2024-01-16T05:20:25;6.45;;;2.80;;
4078;SDS011;2054;47.858;11.156;2024-01-16T05:22:52;5.57;;;2.90;;
4078;SDS011;2054;47.858;11.156;2024-01-16T05:25:18;6.97;;;2.85;;
4078;SDS011;2054;47.858;11.156;2024-01-16T05:27:46;6.57;;;3.33;;
4078;SDS011;2054;47.858;11.156;2024-01-16T05:30:16;5.97;;;2.90;;
4078;SDS011;2054;47.858;11.156;2024-01-16T05:32:43;5.63;;;2.90;;
4078;SDS011;2054;47.858;11.156;2024-01-16T05:35:10;7.07;;;2.88;;
4078;SDS011;2054;47.858;11.156;2024-01-16T05:37:37;7.97;;;3.42;;
4078;SDS011;2054;47.858;11.156;2024-01-16T05:40:04;5.97;;;3.70;;
4078;SDS011;2054;47.858;11.156;2024-01-16T05:42:32;7.63;;;3.70;;
4078;SDS011;2054;47.858;11.156;2024-01-16T05:44:59;8.77;;;2.88;;
4078;SDS011;2054;47.858;11.156;2024-01-16T05:47:29;5.22;;;2.72;;
4078;SDS011;2054;47.858;11.156;2024-01-16T05:49:56;8.80;;;2.78;;
4078;SDS011;2054;47.858;11.156;2024-01-16T05:52:23;8.40;;;2.60;;
4078;SDS011;2054;47.858;11.156;2024-01-16T05:54:50;4.80;;;2.63;;
4078;SDS011;2054;47.858;11.156;2024-01-16T05:57:17;8.27;;;3.20;;
4078;SDS011;2054;47.858;11.156;2024-01-16T05:59:44;7.80;;;2.83;;
4078;SDS011;2054;47.858;11.156;2024-01-16T06:02:11;6.18;;;2.60;;
4078;SDS011;2054;47.858;11.156;2024-01-16T06:04:39;4.53;;;2.72;;
4078;SDS011;2054;47.858;11.156;2024-01-16T06:07:06;4.28;;;2.33;;
4078;SDS011;2054;47.858;11.156;2024-01-16T06:09:33;6.57;;;2.45;;
4078;SDS011;2054;47.858;11.156;2024-01-16T06:12:04;2.75;;;2.00;;
4078;SDS011;2054;47.858;11.156;2024-01-16T06:14:33;4.32;;;2.40;;
4078;SDS011;2054;47.858;11.156;2024-01-16T06:17:00;4.40;;;2.33;;
4078;SDS011;2054;47.858;11.156;2024-01-16T06:19:28;3.25;;;1.90;;
4078;SDS011;2054;47.858;11.156;2024-01-16T06:21:56;6.95;;;2.47;;
4078;SDS011;2054;47.858;11.156;2024-01-16T06:24:23;6.65;;;3.10;;
4078;SDS011;2054;47.858;11.156;2024-01-16T06:26:50;9.20;;;3.40;;
4078;SDS011;2054;47.858;11.156;2024-01-16T06:29:17;6.63;;;3.78;;
4078;SDS011;2054;47.858;11.156;2024-01-16T06:31:44;6.28;;;3.17;;
4078;SDS011;2054;47.858;11.156;2024-01-16T06:34:11;11.90;;;4.35;;
4078;SDS011;2054;47.858;11.156;2024-01-16T06:36:38;8.13;;;3.00;;
4078;SDS011;2054;47.858;11.156;2024-01-16T06:39:07;4.85;;;2.95;;
4078;SDS011;2054;47.858;11.156;2024-01-16T06:41:34;7.07;;;2.95;;
4078;SDS011;2054;47.858;11.156;2024-01-16T06:44:01;7.32;;;3.08;;
4078;SDS011;2054;47.858;11.156;2024-01-16T06:46:28;5.97;;;3.13;;
4078;SDS011;2054;47.858;11.156;2024-01-16T06:48:54;7.93;;;3.58;;
4078;SDS011;2054;47.858;11.156;2024-01-16T06:51:21;5.07;;;3.17;;
4078;SDS011;2054;47.858;11.156;2024-01-16T06:53:48;7.97;;;3.58;;
4078;SDS011;2054;47.858;11.156;2024-01-16T06:56:17;8.75;;;4.07;;
4078;SDS011;2054;47.858;11.156;2024-01-16T06:58:44;8.77;;;4.30;;
4078;SDS011;2054;47.858;11.156;2024-01-16T07:01:11;8.55;;;4.28;;
4078;SDS011;2054;47.858;11.156;2024-01-16T07:03:39;10.45;;;4.43;;
4078;SDS011;2054;47.858;11.156;2024-01-16T07:06:06;11.10;;;4.28;;
4078;SDS011;2054;47.858;11.156;2024-01-16T07:08:32;8.52;;;4.90;;
4078;SDS011;2054;47.858;11.156;2024-01-16T07:10:59;8.73;;;4.20;;
4078;SDS011;2054;47.858;11.156;2024-01-16T07:13:27;8.85;;;4.43;;
4078;SDS011;2054;47.858;11.156;2024-01-16T07:15:54;7.72;;;4.50;;
4078;SDS011;2054;47.858;11.156;2024-01-16T07:18:21;15.60;;;5.25;;
4078;SDS011;2054;47.858;11.156;2024-01-16T07:20:48;11.77;;;5.28;;
4078;SDS011;2054;47.858;11.156;2024-01-16T07:23:15;10.73;;;4.15;;
4078;SDS011;2054;47.858;11.156;2024-01-16T07:25:42;13.43;;;4.57;;
4078;SDS011;2054;47.858;11.156;2024-01-16T07:28:09;7.97;;;4.18;;
4078;SDS011;2054;47.858;11.156;2024-01-16T07:30:37;8.98;;;4.25;;
4078;SDS011;2054;47.858;11.156;2024-01-16T07:33:05;8.38;;;3.97;;
4078;SDS011;2054;47.858;11.156;2024-01-16T07:35:34;6.78;;;3.30;;
4078;SDS011;2054;47.858;11.156;2024-01-16T07:38:01;11.35;;;3.47;;
4078;SDS011;2054;47.858;11.156;2024-01-16T07:40:28;6.47;;;3.95;;
4078;SDS011;2054;47.858;11.156;2024-01-16T07:42:55;7.05;;;3.75;;
4078;SDS011;2054;47.858;11.156;2024-01-16T07:45:24;9.60;;;4.15;;
4078;SDS011;2054;47.858;11.156;2024-01-16T07:47:53;9.60;;;4.97;;
4078;SDS011;2054;47.858;11.156;2024-01-16T07:50:20;9.52;;;4.60;;
4078;SDS011;2054;47.858;11.156;2024-01-16T07:52:47;10.18;;;5.40;;
4078;SDS011;2054;47.858;11.156;2024-01-16T07:55:16;11.90;;;5.13;;
4078;SDS011;2054;47.858;11.156;2024-01-16T07:57:43;13.68;;;4.45;;
4078;SDS011;2054;47.858;11.156;2024-01-16T08:00:11;9.40;;;3.60;;
4078;SDS011;2054;47.858;11.156;2024-01-16T08:02:39;6.88;;;3.75;;
4078;SDS011;2054;47.858;11.156;2024-01-16T08:05:08;7.18;;;3.30;;
4078;SDS011;2054;47.858;11.156;2024-01-16T08:07:35;9.95;;;4.30;;
4078;SDS011;2054;47.858;11.156;2024-01-16T08:10:03;7.45;;;3.90;;
4078;SDS011;2054;47.858;11.156;2024-01-16T08:12:31;8.38;;;3.55;;
4078;SDS011;2054;47.858;11.156;2024-01-16T08:14:58;8.98;;;3.22;;
4078;SDS011;2054;47.858;11.156;2024-01-16T08:17:25;12.98;;;3.97;;
4078;SDS011;2054;47.858;11.156;2024-01-16T08:19:52;8.70;;;4.07;;
4078;SDS011;2054;47.858;11.156;2024-01-16T08:22:21;7.10;;;3.92;;
4078;SDS011;2054;47.858;11.156;2024-01-16T08:24:49;9.18;;;4.10;;
4078;SDS011;2054;47.858;11.156;2024-01-16T08:27:16;9.73;;;4.35;;
4078;SDS011;2054;47.858;11.156;2024-01-16T08:29:44;11.60;;;5.47;;
4078;SDS011;2054;47.858;11.156;2024-01-16T08:32:13;10.90;;;4.35;;
4078;SDS011;2054;47.858;11.156;2024-01-16T08:34:40;10.35;;;4.13;;
4078;SDS011;2054;47.858;11.156;2024-01-16T08:37:08;7.60;;;3.75;;
4078;SDS011;2054;47.858;11.156;2024-01-16T08:39:36;5.20;;;3.30;;
4078;SDS011;2054;47.858;11.156;2024-01-16T08:42:04;8.95;;;4.05;;
4078;SDS011;2054;47.858;11.156;2024-01-16T08:44:32;7.13;;;3.90;;
4078;SDS011;2054;47.858;11.156;2024-01-16T08:46:59;8.88;;;4.65;;
4078;SDS011;2054;47.858;11.156;2024-01-16T08:49:29;9.38;;;4.82;;
4078;SDS011;2054;47.858;11.156;2024-01-16T08:51:57;10.35;;;4.93;;
4078;SDS011;2054;47.858;11.156;2024-01-16T08:54:24;11.93;;;4.80;;
4078;SDS011;2054;47.858;11.156;2024-01-16T08:56:53;11.30;;;5.25;;
4078;SDS011;2054;47.858;11.156;2024-01-16T08:59:21;9.63;;;5.45;;
4078;SDS011;2054;47.858;11.156;2024-01-16T09:01:48;10.50;;;5.50;;
4078;SDS011;2054;47.858;11.156;2024-01-16T09:04:16;12.13;;;5.38;;
4078;SDS011;2054;47.858;11.156;2024-01-16T09:06:44;15.63;;;6.22;;
4078;SDS011;2054;47.858;11.156;2024-01-16T09:09:11;9.23;;;5.03;;
4078;SDS011;2054;47.858;11.156;2024-01-16T09:11:40;10.05;;;5.28;;
4078;SDS011;2054;47.858;11.156;2024-01-16T09:14:11;11.43;;;5.97;;
4078;SDS011;2054;47.858;11.156;2024-01-16T09:16:38;13.60;;;6.20;;
4078;SDS011;2054;47.858;11.156;2024-01-16T09:19:05;11.70;;;5.90;;
4078;SDS011;2054;47.858;11.156;2024-01-16T09:21:34;13.30;;;5.90;;
4078;SDS011;2054;47.858;11.156;2024-01-16T09:24:01;8.57;;;5.45;;
4078;SDS011;2054;47.858;11.156;2024-01-16T09:26:29;11.40;;;5.90;;
4078;SDS011;2054;47.858;11.156;2024-01-16T09:28:57;10.75;;;5.50;;
4078;SDS011;2054;47.858;11.156;2024-01-16T09:31:25;11.52;;;5.50;;
4078;SDS011;2054;47.858;11.156;2024-01-16T09:33:53;13.23;;;5.68;;
4078;SDS011;2054;47.858;11.156;2024-01-16T09:36:20;12.00;;;5.75;;
4078;SDS011;2054;47.858;11.156;2024-01-16T09:38:47;10.32;;;4.97;;
4078;SDS011;2054;47.858;11.156;2024-01-16T09:41:14;10.32;;;5.93;;
4078;SDS011;2054;47.858;11.156;2024-01-16T09:43:42;10.05;;;5.35;;
4078;SDS011;2054;47.858;11.156;2024-01-16T09:46:10;8.50;;;4.40;;
4078;SDS011;2054;47.858;11.156;2024-01-16T09:48:39;11.55;;;5.60;;
4078;SDS011;2054;47.858;11.156;2024-01-16T09:51:07;11.98;;;5.43;;
4078;SDS011;2054;47.858;11.156;2024-01-16T09:53:34;11.95;;;5.50;;
4078;SDS011;2054;47.858;11.156;2024-01-16T09:56:02;14.15;;;5.60;;
4078;SDS011;2054;47.858;11.156;2024-01-16T09:58:30;13.07;;;6.35;;
4078;SDS011;2054;47.858;11.156;2024-01-16T10:01:01;11.40;;;5.13;;
4078;SDS011;2054;47.858;11.156;2024-01-16T10:03:28;9.45;;;4.68;;
4078;SDS011;2054;47.858;11.156;2024-01-16T10:05:59;12.68;;;5.70;;
4078;SDS011;2054;47.858;11.156;2024-01-16T10:08:29;21.30;;;7.97;;
4078;SDS011;2054;47.858;11.156;2024-01-16T10:10:57;14.43;;;6.32;;
4078;SDS011;2054;47.858;11.156;2024-01-16T10:13:24;10.32;;;4.95;;
4078;SDS011;2054;47.858;11.156;2024-01-16T10:15:52;9.60;;;5.05;;
4078;SDS011;2054;47.858;11.156;2024-01-16T10:18:23;10.80;;;4.50;;
4078;SDS011;2054;47.858;11.156;2024-01-16T10:20:51;8.65;;;4.85;;
4078;SDS011;2054;47.858;11.156;2024-01-16T10:23:23;9.32;;;5.00;;
4078;SDS011;2054;47.858;11.156;2024-01-16T10:26:06;9.60;;;4.82;;
4078;SDS011;2054;47.858;11.156;2024-01-16T10:28:34;9.80;;;5.85;;
4078;SDS011;2054;47.858;11.156;2024-01-16T10:31:02;8.40;;;4.88;;
4078;SDS011;2054;47.858;11.156;2024-01-16T10:33:30;10.75;;;5.32;;
4078;SDS011;2054;47.858;11.156;2024-01-16T10:38:43;15.43;;;7.07;;
4078;SDS011;2054;47.858;11.156;2024-01-16T10:41:10;16.48;;;8.10;;
4078;SDS011;2054;47.858;11.156;2024-01-16T10:43:38;15.68;;;7.53;;
4078;SDS011;2054;47.858;11.156;2024-01-16T10:46:08;13.57;;;7.68;;
4078;SDS011;2054;47.858;11.156;2024-01-16T10:48:37;12.13;;;7.38;;
4078;SDS011;2054;47.858;11.156;2024-01-16T10:51:06;13.80;;;6.97;;
4078;SDS011;2054;47.858;11.156;2024-01-16T10:53:34;16.48;;;8.27;;
4078;SDS011;2054;47.858;11.156;2024-01-16T10:56:04;14.00;;;7.70;;
4078;SDS011;2054;47.858;11.156;2024-01-16T10:58:32;14.48;;;8.15;;
4078;SDS011;2054;47.858;11.156;2024-01-16T11:01:01;14.02;;;7.72;;
4078;SDS011;2054;47.858;11.156;2024-01-16T11:03:34;15.60;;;8.18;;
4078;SDS011;2054;47.858;11.156;2024-01-16T11:06:04;41.42;;;14.63;;
4078;SDS011;2054;47.858;11.156;2024-01-16T11:08:33;29.63;;;12.93;;
4078;SDS011;2054;47.858;11.156;2024-01-16T11:11:00;27.48;;;11.75;;
4078;SDS011;2054;47.858;11.156;2024-01-16T11:13:31;26.02;;;12.00;;
4078;SDS011;2054;47.858;11.156;2024-01-16T11:15:58;25.67;;;11.52;;
4078;SDS011;2054;47.858;11.156;2024-01-16T11:18:26;18.50;;;9.75;;
4078;SDS011;2054;47.858;11.156;2024-01-16T11:20:54;18.27;;;9.32;;
4078;SDS011;2054;47.858;11.156;2024-01-16T11:23:22;16.95;;;9.52;;
4078;SDS011;2054;47.858;11.156;2024-01-16T11:25:49;22.52;;;10.57;;
4078;SDS011;2054;47.858;11.156;2024-01-16T11:28:17;24.98;;;12.18;;
4078;SDS011;2054;47.858;11.156;2024-01-16T11:30:46;16.92;;;9.38;;
4078;SDS011;2054;47.858;11.156;2024-01-16T11:35:59;14.63;;;7.80;;
4078;SDS011;2054;47.858;11.156;2024-01-16T11:38:27;16.67;;;8.70;;
4078;SDS011;2054;47.858;11.156;2024-01-16T11:40:56;16.45;;;8.73;;
4078;SDS011;2054;47.858;11.156;2024-01-16T11:43:36;16.55;;;8.50;;
4078;SDS011;2054;47.858;11.156;2024-01-16T11:46:05;16.60;;;8.68;;
4078;SDS011;2054;47.858;11.156;2024-01-16T11:48:33;22.67;;;9.82;;
4078;SDS011;2054;47.858;11.156;2024-01-16T11:51:00;18.10;;;10.18;;
4078;SDS011;2054;47.858;11.156;2024-01-16T11:53:48;16.60;;;9.32;;
4078;SDS011;2054;47.858;11.156;2024-01-16T11:56:26;18.65;;;9.60;;
4078;SDS011;2054;47.858;11.156;2024-01-16T11:59:08;19.80;;;9.65;;
4078;SDS011;2054;47.858;11.156;2024-01-16T12:01:43;20.05;;;10.23;;
4078;SDS011;2054;47.858;11.156;2024-01-16T12:04:11;18.05;;;9.23;;
4078;SDS011;2054;47.858;11.156;2024-01-16T12:06:43;17.42;;;9.13;;
4078;SDS011;2054;47.858;11.156;2024-01-16T12:09:11;20.35;;;10.55;;
4078;SDS011;2054;47.858;11.156;2024-01-16T12:11:39;20.42;;;10.25;;
4078;SDS011;2054;47.858;11.156;2024-01-16T12:14:09;22.15;;;10.50;;
4078;SDS011;2054;47.858;11.156;2024-01-16T12:16:36;17.15;;;7.57;;
4078;SDS011;2054;47.858;11.156;2024-01-16T12:19:06;17.75;;;8.35;;
4078;SDS011;2054;47.858;11.156;2024-01-16T12:21:34;15.40;;;6.68;;
4078;SDS011;2054;47.858;11.156;2024-01-16T12:24:02;12.35;;;6.65;;
4078;SDS011;2054;47.858;11.156;2024-01-16T12:26:30;12.98;;;6.97;;
4078;SDS011;2054;47.858;11.156;2024-01-16T12:28:57;16.85;;;8.40;;
4078;SDS011;2054;47.858;11.156;2024-01-16T12:31:25;17.58;;;9.25;;
4078;SDS011;2054;47.858;11.156;2024-01-16T12:33:54;11.95;;;6.15;;
4078;SDS011;2054;47.858;11.156;2024-01-16T12:36:23;11.10;;;6.40;;
4078;SDS011;2054;47.858;11.156;2024-01-16T12:38:54;14.70;;;6.53;;
4078;SDS011;2054;47.858;11.156;2024-01-16T12:41:21;11.38;;;6.85;;
4078;SDS011;2054;47.858;11.156;2024-01-16T12:43:49;12.38;;;6.57;;
4078;SDS011;2054;47.858;11.156;2024-01-16T12:46:17;15.40;;;7.32;;
4078;SDS011;2054;47.858;11.156;2024-01-16T12:48:45;13.52;;;5.70;;
4078;SDS011;2054;47.858;11.156;2024-01-16T12:51:19;8.48;;;5.00;;
4078;SDS011;2054;47.858;11.156;2024-01-16T12:53:49;7.30;;;3.80;;
4078;SDS011;2054;47.858;11.156;2024-01-16T12:56:18;9.45;;;4.03;;
4078;SDS011;2054;47.858;11.156;2024-01-16T12:58:46;7.30;;;4.15;;
4078;SDS011;2054;47.858;11.156;2024-01-16T13:01:22;6.68;;;2.78;;
4078;SDS011;2054;47.858;11.156;2024-01-16T13:03:50;9.40;;;4.28;;
4078;SDS011;2054;47.858;11.156;2024-01-16T13:06:18;8.73;;;4.47;;
4078;SDS011;2054;47.858;11.156;2024-01-16T13:08:46;6.72;;;4.00;;
4078;SDS011;2054;47.858;11.156;2024-01-16T13:11:15;8.20;;;4.32;;
4078;SDS011;2054;47.858;11.156;2024-01-16T13:13:45;7.47;;;4.40;;
4078;SDS011;2054;47.858;11.156;2024-01-16T13:16:13;7.28;;;4.47;;
4078;SDS011;2054;47.858;11.156;2024-01-16T13:18:41;12.15;;;5.50;;
4078;SDS011;2054;47.858;11.156;2024-01-16T13:21:08;12.18;;;5.45;;
4078;SDS011;2054;47.858;11.156;2024-01-16T13:23:35;10.68;;;4.97;;
4078;SDS011;2054;47.858;11.156;2024-01-16T13:26:03;10.13;;;4.93;;
4078;SDS011;2054;47.858;11.156;2024-01-16T13:28:33;12.85;;;5.38;;
4078;SDS011;2054;47.858;11.156;2024-01-16T13:31:00;14.43;;;6.22;;
4078;SDS011;2054;47.858;11.156;2024-01-16T13:33:28;11.60;;;6.93;;
4078;SDS011;2054;47.858;11.156;2024-01-16T13:35:57;9.50;;;4.75;;
4078;SDS011;2054;47.858;11.156;2024-01-16T13:38:24;10.27;;;5.22;;
4078;SDS011;2054;47.858;11.156;2024-01-16T13:40:51;9.40;;;3.92;;
4078;SDS011;2054;47.858;11.156;2024-01-16T13:43:19;10.65;;;4.43;;
4078;SDS011;2054;47.858;11.156;2024-01-16T13:45:48;13.10;;;4.97;;
4078;SDS011;2054;47.858;11.156;2024-01-16T13:48:16;15.73;;;6.30;;
4078;SDS011;2054;47.858;11.156;2024-01-16T13:50:44;11.63;;;5.72;;
4078;SDS011;2054;47.858;11.156;2024-01-16T13:53:11;6.55;;;4.00;;
4078;SDS011;2054;47.858;11.156;2024-01-16T13:55:39;6.35;;;3.80;;
4078;SDS011;2054;47.858;11.156;2024-01-16T13:58:07;5.82;;;4.00;;
4078;SDS011;2054;47.858;11.156;2024-01-16T14:00:35;8.43;;;4.60;;
4078;SDS011;2054;47.858;11.156;2024-01-16T14:03:04;7.38;;;4.20;;
4078;SDS011;2054;47.858;11.156;2024-01-16T14:05:33;6.25;;;3.78;;
4078;SDS011;2054;47.858;11.156;2024-01-16T14:08:01;8.77;;;4.93;;
4078;SDS011;2054;47.858;11.156;2024-01-16T14:10:28;8.30;;;4.80;;
4078;SDS011;2054;47.858;11.156;2024-01-16T14:12:56;65.68;;;24.42;;
4078;SDS011;2054;47.858;11.156;2024-01-16T14:15:23;20.55;;;9.85;;
4078;SDS011;2054;47.858;11.156;2024-01-16T14:17:51;22.38;;;10.63;;
4078;SDS011;2054;47.858;11.156;2024-01-16T14:20:21;16.27;;;8.60;;
4078;SDS011;2054;47.858;11.156;2024-01-16T14:22:49;20.65;;;8.05;;
4078;SDS011;2054;47.858;11.156;2024-01-16T14:25:16;13.90;;;7.10;;
4078;SDS011;2054;47.858;11.156;2024-01-16T14:27:44;17.65;;;7.85;;
4078;SDS011;2054;47.858;11.156;2024-01-16T14:30:12;17.70;;;8.48;;
4078;SDS011;2054;47.858;11.156;2024-01-16T14:32:40;16.70;;;8.90;;
4078;SDS011;2054;47.858;11.156;2024-01-16T14:35:08;19.85;;;11.10;;
4078;SDS011;2054;47.858;11.156;2024-01-16T14:37:37;26.85;;;13.23;;
4078;SDS011;2054;47.858;11.156;2024-01-16T14:40:05;22.60;;;10.57;;
4078;SDS011;2054;47.858;11.156;2024-01-16T14:42:38;16.60;;;8.02;;
4078;SDS011;2054;47.858;11.156;2024-01-16T14:45:06;13.68;;;7.63;;
4078;SDS011;2054;47.858;11.156;2024-01-16T14:47:36;18.45;;;8.90;;
4078;SDS011;2054;47.858;11.156;2024-01-16T14:50:05;20.95;;;9.68;;
4078;SDS011;2054;47.858;11.156;2024-01-16T14:52:32;17.90;;;7.53;;
4078;SDS011;2054;47.858;11.156;2024-01-16T14:55:01;12.00;;;6.50;;
4078;SDS011;2054;47.858;11.156;2024-01-16T14:57:29;14.35;;;6.97;;
4078;SDS011;2054;47.858;11.156;2024-01-16T15:00:03;12.75;;;6.25;;
4078;SDS011;2054;47.858;11.156;2024-01-16T15:02:38;14.93;;;6.95;;
4078;SDS011;2054;47.858;11.156;2024-01-16T15:05:06;13.18;;;7.03;;
4078;SDS011;2054;47.858;11.156;2024-01-16T15:07:33;12.18;;;7.03;;
4078;SDS011;2054;47.858;11.156;2024-01-16T15:10:04;13.70;;;6.68;;
4078;SDS011;2054;47.858;11.156;2024-01-16T15:12:33;11.20;;;6.30;;
4078;SDS011;2054;47.858;11.156;2024-01-16T15:15:01;12.32;;;6.57;;
4078;SDS011;2054;47.858;11.156;2024-01-16T15:17:29;14.15;;;7.20;;
4078;SDS011;2054;47.858;11.156;2024-01-16T15:19:56;14.55;;;8.43;;
4078;SDS011;2054;47.858;11.156;2024-01-16T15:22:24;12.10;;;5.97;;
4078;SDS011;2054;47.858;11.156;2024-01-16T15:24:51;16.13;;;7.10;;
4078;SDS011;2054;47.858;11.156;2024-01-16T15:27:20;10.52;;;5.43;;
4078;SDS011;2054;47.858;11.156;2024-01-16T15:29:47;13.23;;;6.85;;
4078;SDS011;2054;47.858;11.156;2024-01-16T15:32:15;12.60;;;6.45;;
4078;SDS011;2054;47.858;11.156;2024-01-16T15:34:42;13.75;;;6.30;;
4078;SDS011;2054;47.858;11.156;2024-01-16T15:37:12;23.25;;;9.52;;
4078;SDS011;2054;47.858;11.156;2024-01-16T15:39:39;14.68;;;7.07;;
4078;SDS011;2054;47.858;11.156;2024-01-16T15:42:07;16.20;;;7.45;;
4078;SDS011;2054;47.858;11.156;2024-01-16T15:44:35;14.82;;;6.35;;
4078;SDS011;2054;47.858;11.156;2024-01-16T15:47:03;15.35;;;7.20;;
4078;SDS011;2054;47.858;11.156;2024-01-16T15:49:30;17.23;;;5.85;;
4078;SDS011;2054;47.858;11.156;2024-01-16T15:51:58;16.10;;;6.25;;
4078;SDS011;2054;47.858;11.156;2024-01-16T15:54:25;13.32;;;6.25;;
4078;SDS011;2054;47.858;11.156;2024-01-16T15:56:53;14.55;;;6.10;;
4078;SDS011;2054;47.858;11.156;2024-01-16T15:59:21;10.10;;;5.40;;
4078;SDS011;2054;47.858;11.156;2024-01-16T16:01:49;11.38;;;6.05;;
4078;SDS011;2054;47.858;11.156;2024-01-16T16:04:17;14.00;;;5.15;;
4078;SDS011;2054;47.858;11.156;2024-01-16T16:06:44;12.25;;;5.63;;
4078;SDS011;2054;47.858;11.156;2024-01-16T16:09:11;19.55;;;5.93;;
4078;SDS011;2054;47.858;11.156;2024-01-16T16:11:40;12.48;;;5.65;;
4078;SDS011;2054;47.858;11.156;2024-01-16T16:14:09;12.23;;;5.68;;
4078;SDS011;2054;47.858;11.156;2024-01-16T16:16:37;13.85;;;6.70;;
4078;SDS011;2054;47.858;11.156;2024-01-16T16:19:06;20.55;;;8.50;;
4078;SDS011;2054;47.858;11.156;2024-01-16T16:21:33;14.00;;;6.72;;
4078;SDS011;2054;47.858;11.156;2024-01-16T16:24:00;16.67;;;7.72;;
4078;SDS011;2054;47.858;11.156;2024-01-16T16:26:28;21.50;;;7.00;;
4078;SDS011;2054;47.858;11.156;2024-01-16T16:29:00;17.20;;;6.78;;
4078;SDS011;2054;47.858;11.156;2024-01-16T16:31:28;13.52;;;6.72;;
4078;SDS011;2054;47.858;11.156;2024-01-16T16:33:57;18.92;;;6.35;;
4078;SDS011;2054;47.858;11.156;2024-01-16T16:36:26;15.20;;;5.97;;
4078;SDS011;2054;47.858;11.156;2024-01-16T16:38:54;18.33;;;7.50;;
4078;SDS011;2054;47.858;11.156;2024-01-16T16:41:21;16.77;;;7.57;;
4078;SDS011;2054;47.858;11.156;2024-01-16T16:43:49;23.85;;;9.25;;
4078;SDS011;2054;47.858;11.156;2024-01-16T16:46:16;21.20;;;8.27;;
4078;SDS011;2054;47.858;11.156;2024-01-16T16:48:46;20.60;;;8.35;;
4078;SDS011;2054;47.858;11.156;2024-01-16T16:51:15;18.25;;;8.00;;
4078;SDS011;2054;47.858;11.156;2024-01-16T16:53:44;18.98;;;7.10;;
4078;SDS011;2054;47.858;11.156;2024-01-16T16:56:12;20.38;;;7.20;;
4078;SDS011;2054;47.858;11.156;2024-01-16T16:58:40;15.02;;;6.10;;
4078;SDS011;2054;47.858;11.156;2024-01-16T17:01:09;13.90;;;6.45;;
4078;SDS011;2054;47.858;11.156;2024-01-16T17:03:36;11.13;;;6.35;;
4078;SDS011;2054;47.858;11.156;2024-01-16T17:06:04;14.38;;;6.30;;
4078;SDS011;2054;47.858;11.156;2024-01-16T17:08:33;16.00;;;6.63;;
4078;SDS011;2054;47.858;11.156;2024-01-16T17:11:03;11.98;;;5.50;;
4078;SDS011;2054;47.858;11.156;2024-01-16T17:13:31;17.75;;;5.95;;
4078;SDS011;2054;47.858;11.156;2024-01-16T17:15:58;20.13;;;5.93;;
4078;SDS011;2054;47.858;11.156;2024-01-16T17:18:27;17.08;;;6.15;;
4078;SDS011;2054;47.858;11.156;2024-01-16T17:20:55;12.40;;;5.85;;
4078;SDS011;2054;47.858;11.156;2024-01-16T17:23:22;17.15;;;5.47;;
4078;SDS011;2054;47.858;11.156;2024-01-16T17:25:50;12.55;;;5.85;;
4078;SDS011;2054;47.858;11.156;2024-01-16T17:28:20;11.15;;;5.80;;
4078;SDS011;2054;47.858;11.156;2024-01-16T17:30:48;11.05;;;4.70;;
4078;SDS011;2054;47.858;11.156;2024-01-16T17:33:15;16.65;;;5.65;;
4078;SDS011;2054;47.858;11.156;2024-01-16T17:35:43;20.13;;;5.68;;
4078;SDS011;2054;47.858;11.156;2024-01-16T17:38:10;13.55;;;5.28;;
4078;SDS011;2054;47.858;11.156;2024-01-16T17:40:40;10.80;;;5.00;;
4078;SDS011;2054;47.858;11.156;2024-01-16T17:43:07;10.38;;;4.53;;
4078;SDS011;2054;47.858;11.156;2024-01-16T17:45:36;10.00;;;4.78;;
4078;SDS011;2054;47.858;11.156;2024-01-16T17:48:04;10.48;;;5.07;;
4078;SDS011;2054;47.858;11.156;2024-01-16T17:50:31;16.67;;;4.25;;
4078;SDS011;2054;47.858;11.156;2024-01-16T17:52:58;12.00;;;4.85;;
4078;SDS011;2054;47.858;11.156;2024-01-16T17:55:30;16.85;;;6.53;;
4078;SDS011;2054;47.858;11.156;2024-01-16T17:57:59;19.95;;;8.52;;
4078;SDS011;2054;47.858;11.156;2024-01-16T18:00:26;20.75;;;9.30;;
4078;SDS011;2054;47.858;11.156;2024-01-16T18:02:55;16.83;;;8.55;;
4078;SDS011;2054;47.858;11.156;2024-01-16T18:05:23;13.82;;;7.82;;
4078;SDS011;2054;47.858;11.156;2024-01-16T18:07:54;17.52;;;7.78;;
4078;SDS011;2054;47.858;11.156;2024-01-16T18:10:21;18.27;;;8.32;;
4078;SDS011;2054;47.858;11.156;2024-01-16T18:12:49;24.42;;;8.70;;
4078;SDS011;2054;47.858;11.156;2024-01-16T18:15:16;17.80;;;7.80;;
4078;SDS011;2054;47.858;11.156;2024-01-16T18:17:46;15.13;;;7.38;;
4078;SDS011;2054;47.858;11.156;2024-01-16T18:20:18;18.45;;;7.32;;
4078;SDS011;2054;47.858;11.156;2024-01-16T18:22:47;14.25;;;7.15;;
4078;SDS011;2054;47.858;11.156;2024-01-16T18:25:15;13.82;;;6.53;;
4078;SDS011;2054;47.858;11.156;2024-01-16T18:27:43;19.50;;;6.40;;
4078;SDS011;2054;47.858;11.156;2024-01-16T18:30:12;17.77;;;7.13;;
4078;SDS011;2054;47.858;11.156;2024-01-16T18:32:40;14.05;;;6.90;;
4078;SDS011;2054;47.858;11.156;2024-01-16T18:35:08;15.18;;;8.23;;
4078;SDS011;2054;47.858;11.156;2024-01-16T18:37:38;11.73;;;7.47;;
4078;SDS011;2054;47.858;11.156;2024-01-16T18:40:06;11.35;;;5.35;;
4078;SDS011;2054;47.858;11.156;2024-01-16T18:42:34;9.10;;;4.38;;
4078;SDS011;2054;47.858;11.156;2024-01-16T18:45:02;10.88;;;5.18;;
4078;SDS011;2054;47.858;11.156;2024-01-16T18:47:30;7.60;;;3.97;;
4078;SDS011;2054;47.858;11.156;2024-01-16T18:49:58;13.65;;;5.13;;